Time;durP1;ratioP1;P1;durP2;ratioP2;P2;SDS_P1;SDS_P2;PMS_P1;PMS_P2;Temp;Humidity;BMP_temperature;BMP_pressure;BME280_temperature;BME280_humidity;BME280_pressure;Samples;Min_cycle;Max_cycle;Signal;HPM_P1;HPM_P2
2023/04/07 00:00:39;;;;;;;;;;;;;;;-140.72;100.00;52855.56;5030627;28;19956;-69
2023/04/07 00:03:06;;;;;;;;;;;;;;;-140.72;100.00;52833.22;5023881;28;19921;-68
2023/04/07 00:05:31;;;;;;;;;;;;;;;-140.72;100.00;52861.66;5018972;28;19970;-69
2023/04/07 00:07:57;;;;;;;;;;;;;;;-140.72;100.00;52825.13;5018658;28;19918;-68
2023/04/07 00:10:22;;;;;;;;;;;;;;;-140.72;100.00;52865.69;5024008;28;20012;-68
2023/04/07 00:12:47;;;;;;;;;;;;;;;-140.72;100.00;52833.22;5027126;27;19970;-68
2023/04/07 00:15:13;;;;;;;;;;;;;;;-140.72;100.00;52823.09;5032676;28;20000;-69
2023/04/07 00:17:38;;;;;;;;;;;;;;;-140.72;100.00;52835.25;5031888;28;19928;-68
2023/04/07 00:20:03;;;;;;;;;;;;;;;-140.72;100.00;52877.88;5032379;28;19927;-69
2023/04/07 00:22:29;;;;;;;;;;;;;;;-140.72;100.00;52827.16;5031168;28;19969;-69
2023/04/07 00:24:54;;;;;;;;;;;;;;;-140.72;100.00;52847.44;5030683;28;19924;-68
2023/04/07 00:27:22;;;;;;;;;;;;;;;-140.72;100.00;52886.00;5030812;28;19917;-69
2023/04/07 00:29:50;;;;;;;;;;;;;;;-140.72;100.00;52845.41;5031010;28;19928;-68
2023/04/07 00:32:15;;;;;;;;;;;;;;;-140.72;100.00;52837.28;5030166;28;20393;-69
2023/04/07 00:34:40;;;;;;;;;;;;;;;-140.72;100.00;52857.59;5040534;28;19924;-69
2023/04/07 00:37:06;;;;;;;;;;;;;;;-140.72;100.00;52841.34;5019081;28;19918;-69
2023/04/07 00:39:31;;;;;;;;;;;;;;;-140.72;100.00;52873.81;5032190;28;19921;-68
2023/04/07 00:41:58;;;;;;;;;;;;;;;-140.72;100.00;52849.47;5021615;28;19917;-69
2023/04/07 00:44:23;;;;;;;;;;;;;;;-140.72;100.00;52851.50;5067348;27;19917;-69
2023/04/07 00:46:48;;;;;;;;;;;;;;;-140.72;100.00;52837.28;5030550;28;19966;-69
2023/04/07 00:49:23;;;;;;;;;;;;;;;-140.72;100.00;52833.22;5031239;28;19924;-69
2023/04/07 00:52:03;;;;;;;;;;;;;;;-140.72;100.00;52800.75;5029922;27;20344;-69
2023/04/07 00:54:29;;;;;;;;;;;;;;;-140.72;100.00;52892.09;5028547;28;20386;-69
2023/04/07 00:57:10;;;;;;;;;;;;;;;-140.72;100.00;52825.13;5029326;28;20004;-68
2023/04/07 00:59:35;;;;;;;;;;;;;;;-140.72;100.00;52833.22;5023652;28;19970;-68
2023/04/07 01:02:12;;;;;;;;;;;;;;;-140.72;100.00;52863.66;5013044;28;20379;-68
2023/04/07 01:04:40;;;;;;;;;;;;;;;-140.72;100.00;52859.63;5033363;28;20365;-69
2023/04/07 01:07:08;;;;;;;;;;;;;;;-140.72;100.00;52833.22;5017723;28;20363;-68
2023/04/07 01:09:40;;;;;;;;;;;;;;;-140.72;100.00;52881.94;5024701;28;19924;-69
2023/04/07 01:12:25;;;;;;;;;;;;;;;-140.72;100.00;52849.47;5024299;28;20201;-69
2023/04/07 01:14:53;;;;;;;;;;;;;;;-140.72;100.00;52886.00;5025130;28;19921;-68
2023/04/07 01:17:22;;;;;;;;;;;;;;;-140.72;100.00;52914.41;5028860;28;20263;-68
2023/04/07 01:19:54;;;;;;;;;;;;;;;-140.72;100.00;52881.94;5025082;28;19918;-68
2023/04/07 01:22:47;;;;;;;;;;;;;;;-140.72;100.00;52845.41;5018043;28;19917;-68
2023/04/07 01:25:30;;;;;;;;;;;;;;;-140.72;100.00;52871.78;5032719;28;19921;-68
2023/04/07 01:28:15;;;;;;;;;;;;;;;-140.72;100.00;52879.91;5031071;28;19929;-68
2023/04/07 01:30:42;;;;;;;;;;;;;;;-140.72;100.00;52892.09;5010275;28;20363;-69
2023/04/07 01:33:08;;;;;;;;;;;;;;;-140.72;100.00;52877.88;5027117;28;19921;-69
2023/04/07 01:35:35;;;;;;;;;;;;;;;-140.72;100.00;52873.81;5025721;28;19952;-69
2023/04/07 01:38:01;;;;;;;;;;;;;;;-140.72;100.00;52869.75;5035827;28;19917;-69
2023/04/07 01:40:27;;;;;;;;;;;;;;;-140.72;100.00;52873.81;5035291;28;20305;-69
2023/04/07 01:42:54;;;;;;;;;;;;;;;-140.72;100.00;52932.66;5038923;28;20008;-69
2023/04/07 01:45:20;;;;;;;;;;;;;;;-140.72;100.00;52879.91;5015763;28;19917;-68
2023/04/07 01:47:46;;;;;;;;;;;;;;;-140.72;100.00;52926.59;5029648;28;19925;-69
2023/04/07 01:50:12;;;;;;;;;;;;;;;-140.72;100.00;52883.97;5029653;28;20371;-69
2023/04/07 01:52:39;;;;;;;;;;;;;;;-140.72;100.00;52926.59;5016506;28;20024;-68
2023/04/07 01:55:04;;;;;;;;;;;;;;;-140.72;100.00;52890.06;5034157;28;19924;-69
2023/04/07 01:57:30;;;;;;;;;;;;;;;-140.72;100.00;52910.34;5043687;28;20297;-68
2023/04/07 01:59:55;;;;;;;;;;;;;;;-140.72;100.00;52886.00;5029067;28;19921;-68
2023/04/07 02:02:21;;;;;;;;;;;;;;;-140.72;100.00;52892.09;5030803;28;19975;-68
2023/04/07 02:04:53;;;;;;;;;;;;;;;-140.72;100.00;52869.75;5031502;28;19917;-69
2023/04/07 02:07:20;;;;;;;;;;;;;;;-140.72;100.00;52892.09;5033638;28;19917;-69
2023/04/07 02:09:46;;;;;;;;;;;;;;;-140.72;100.00;52898.16;5017537;28;20291;-69
2023/04/07 02:12:13;;;;;;;;;;;;;;;-140.72;100.00;52894.13;5030620;28;19925;-69
2023/04/07 02:14:39;;;;;;;;;;;;;;;-140.72;100.00;52902.22;5030262;28;19917;-69
2023/04/07 02:17:04;;;;;;;;;;;;;;;-140.72;100.00;52918.47;5030573;28;20280;-69
2023/04/07 02:19:30;;;;;;;;;;;;;;;-140.72;100.00;52910.34;5028365;28;19917;-69
2023/04/07 02:21:56;;;;;;;;;;;;;;;-140.72;100.00;52890.06;5030492;28;20001;-68
2023/04/07 02:24:21;;;;;;;;;;;;;;;-140.72;100.00;52900.19;5030414;28;20020;-69
2023/04/07 02:26:46;;;;;;;;;;;;;;;-140.72;100.00;52859.63;5027072;28;20367;-68
2023/04/07 02:29:12;;;;;;;;;;;;;;;-140.72;100.00;52926.59;5021647;28;19917;-69
2023/04/07 02:31:37;;;;;;;;;;;;;;;-140.72;100.00;52886.00;5020852;28;19923;-69
2023/04/07 02:34:03;;;;;;;;;;;;;;;-140.72;100.00;52898.16;5036261;28;19924;-68
2023/04/07 02:36:28;;;;;;;;;;;;;;;-140.72;100.00;52865.69;5037685;28;19917;-68
2023/04/07 02:41:56;;;;;;;;;;;;;;;-140.72;100.00;52881.94;5033251;28;19959;-68
2023/04/07 02:44:21;;;;;;;;;;;;;;;-140.72;100.00;52863.66;5032256;28;19921;-68
2023/04/07 02:46:46;;;;;;;;;;;;;;;-140.72;100.00;52890.06;5033789;28;19921;-68
2023/04/07 02:49:12;;;;;;;;;;;;;;;-140.72;100.00;52908.31;5018191;28;19925;-68
2023/04/07 02:51:37;;;;;;;;;;;;;;;-140.72;100.00;52902.22;5027453;28;19982;-68
2023/04/07 02:54:02;;;;;;;;;;;;;;;-140.72;100.00;52894.13;5024359;28;20324;-68
2023/04/07 02:56:27;;;;;;;;;;;;;;;-140.72;100.00;52938.75;5020391;28;19917;-68
2023/04/07 02:58:53;;;;;;;;;;;;;;;-140.72;100.00;52886.00;5031790;28;20265;-68
2023/04/07 03:01:18;;;;;;;;;;;;;;;-140.72;100.00;52883.97;5033712;28;19928;-68
2023/04/07 03:03:43;;;;;;;;;;;;;;;-140.72;100.00;52902.22;5033131;28;19973;-68
2023/04/07 03:06:16;;;;;;;;;;;;;;;-140.72;100.00;52873.81;5031530;28;19969;-68
2023/04/07 03:08:41;;;;;;;;;;;;;;;-140.72;100.00;52869.75;5032126;28;19975;-68
2023/04/07 03:11:06;;;;;;;;;;;;;;;-140.72;100.00;52881.94;5024731;28;20384;-68
2023/04/07 03:16:34;;;;;;;;;;;;;;;-140.72;100.00;52906.28;5026003;28;19936;-69
2023/04/07 03:18:59;;;;;;;;;;;;;;;-140.72;100.00;52908.31;5028354;28;20374;-68
2023/04/07 03:21:25;;;;;;;;;;;;;;;-140.72;100.00;52896.16;5033139;28;20016;-68
2023/04/07 03:23:50;;;;;;;;;;;;;;;-140.72;100.00;52877.88;5025032;28;19940;-68
2023/04/07 03:26:15;;;;;;;;;;;;;;;-140.72;100.00;52861.66;5030248;28;20378;-68
2023/04/07 03:28:41;;;;;;;;;;;;;;;-140.72;100.00;52881.94;5031836;28;20656;-68
2023/04/07 03:31:06;;;;;;;;;;;;;;;-140.72;100.00;52883.97;5018393;28;20375;-68
2023/04/07 03:33:31;;;;;;;;;;;;;;;-140.72;100.00;52869.75;5013370;28;19928;-68
2023/04/07 03:35:56;;;;;;;;;;;;;;;-140.72;100.00;52873.81;5030117;28;20392;-68
2023/04/07 03:38:21;;;;;;;;;;;;;;;-140.72;100.00;52879.91;5031708;28;20272;-68
2023/04/07 03:40:47;;;;;;;;;;;;;;;-140.72;100.00;52877.88;5041401;28;19952;-68
2023/04/07 03:43:14;;;;;;;;;;;;;;;-140.72;100.00;52902.22;5026953;28;19917;-68
2023/04/07 03:45:40;;;;;;;;;;;;;;;-140.72;100.00;52845.41;5031413;28;19924;-68
2023/04/07 03:48:09;;;;;;;;;;;;;;;-140.72;100.00;52879.91;5033445;28;19917;-67
2023/04/07 03:50:34;;;;;;;;;;;;;;;-140.72;100.00;52898.16;5037943;28;20008;-68
2023/04/07 03:52:59;;;;;;;;;;;;;;;-140.72;100.00;52892.09;5031664;28;19955;-68
2023/04/07 03:55:24;;;;;;;;;;;;;;;-140.72;100.00;52890.06;5028367;28;20385;-68
2023/04/07 03:57:50;;;;;;;;;;;;;;;-140.72;100.00;52857.59;5022944;28;19917;-68
2023/04/07 04:00:15;;;;;;;;;;;;;;;-140.72;100.00;52879.91;5015661;28;20393;-69
2023/04/07 04:02:40;;;;;;;;;;;;;;;-140.72;100.00;52894.13;5028307;28;19997;-67
2023/04/07 04:05:05;;;;;;;;;;;;;;;-140.72;100.00;52875.84;5027864;28;19962;-68
2023/04/07 04:07:32;;;;;;;;;;;;;;;-140.72;100.00;52837.28;5040258;28;19981;-68
2023/04/07 04:09:57;;;;;;;;;;;;;;;-140.72;100.00;52896.16;5035643;28;19990;-68
2023/04/07 04:12:22;;;;;;;;;;;;;;;-140.72;100.00;52875.84;5023550;28;19917;-68
2023/04/07 04:14:48;;;;;;;;;;;;;;;-140.72;100.00;52869.75;5025693;28;20063;-68
2023/04/07 04:17:13;;;;;;;;;;;;;;;-140.72;100.00;52879.91;5040915;28;19985;-68
2023/04/07 04:19:38;;;;;;;;;;;;;;;-140.72;100.00;52902.22;5025960;28;19925;-68
2023/04/07 04:22:03;;;;;;;;;;;;;;;-140.72;100.00;52867.72;5019774;28;20006;-69
2023/04/07 04:24:28;;;;;;;;;;;;;;;-140.72;100.00;52871.78;5026187;28;19921;-68
2023/04/07 04:26:55;;;;;;;;;;;;;;;-140.72;100.00;52898.16;5018829;28;19918;-69
2023/04/07 04:29:20;;;;;;;;;;;;;;;-140.72;100.00;52853.53;5016462;28;19917;-69
2023/04/07 04:31:46;;;;;;;;;;;;;;;-140.72;100.00;52871.78;5031924;28;20398;-69
2023/04/07 04:34:11;;;;;;;;;;;;;;;-140.72;100.00;52851.50;5013760;28;20303;-69
2023/04/07 04:36:36;;;;;;;;;;;;;;;-140.72;100.00;52898.16;5031465;28;19917;-69
2023/04/07 04:39:01;;;;;;;;;;;;;;;-140.72;100.00;52894.13;5030447;28;20377;-69
2023/04/07 04:41:26;;;;;;;;;;;;;;;-140.72;100.00;52869.75;5031339;28;20287;-69
2023/04/07 04:43:52;;;;;;;;;;;;;;;-140.72;100.00;52849.47;5030288;28;20294;-69
2023/04/07 04:46:17;;;;;;;;;;;;;;;-140.72;100.00;52869.75;5022246;28;20007;-68
2023/04/07 04:48:42;;;;;;;;;;;;;;;-140.72;100.00;52869.75;5026195;28;19917;-69
2023/04/07 04:51:07;;;;;;;;;;;;;;;-140.72;100.00;52843.38;5037614;28;20367;-68
2023/04/07 04:53:33;;;;;;;;;;;;;;;-140.72;100.00;52877.88;5023694;28;20367;-69
2023/04/07 04:55:58;;;;;;;;;;;;;;;-140.72;100.00;52861.66;5019516;28;19917;-69
2023/04/07 04:58:23;;;;;;;;;;;;;;;-140.72;100.00;52861.66;5031815;28;19918;-69
2023/04/07 05:00:48;;;;;;;;;;;;;;;-140.72;100.00;52855.56;5028484;28;19921;-69
2023/04/07 05:03:13;;;;;;;;;;;;;;;-140.72;100.00;52873.81;5018512;28;19956;-68
2023/04/07 05:05:39;;;;;;;;;;;;;;;-140.72;100.00;52881.94;5015695;28;19971;-68
2023/04/07 05:08:07;;;;;;;;;;;;;;;-140.72;100.00;52890.06;5024458;28;19918;-68
2023/04/07 05:10:36;;;;;;;;;;;;;;;-140.72;100.00;52879.91;5029516;28;20287;-68
2023/04/07 05:13:02;;;;;;;;;;;;;;;-140.72;100.00;52853.53;5028616;28;19967;-69
2023/04/07 05:15:28;;;;;;;;;;;;;;;-140.72;100.00;52881.94;5030241;28;19917;-70
2023/04/07 05:17:53;;;;;;;;;;;;;;;-140.72;100.00;52843.38;5030093;28;19917;-70
2023/04/07 05:20:18;;;;;;;;;;;;;;;-140.72;100.00;52894.13;5029750;28;19970;-67
2023/04/07 05:22:44;;;;;;;;;;;;;;;-140.72;100.00;52881.94;5027800;28;20338;-69
2023/04/07 05:28:12;;;;;;;;;;;;;;;-140.72;100.00;52881.94;5026574;28;19932;-70
2023/04/07 05:30:37;;;;;;;;;;;;;;;-140.72;100.00;52845.41;5024376;28;19917;-69
2023/04/07 05:33:02;;;;;;;;;;;;;;;-140.72;100.00;52871.78;5029492;28;19921;-68
2023/04/07 05:35:27;;;;;;;;;;;;;;;-140.72;100.00;52851.50;5031221;28;20374;-68
2023/04/07 05:37:53;;;;;;;;;;;;;;;-140.72;100.00;52863.66;5027316;28;19921;-68
2023/04/07 05:40:18;;;;;;;;;;;;;;;-140.72;100.00;52853.53;5027261;28;20286;-68
2023/04/07 05:42:43;;;;;;;;;;;;;;;-140.72;100.00;52883.97;5025248;28;19921;-68
2023/04/07 05:45:09;;;;;;;;;;;;;;;-140.72;100.00;52853.53;5044176;28;19929;-68
2023/04/07 05:47:34;;;;;;;;;;;;;;;-140.72;100.00;52892.09;5035300;28;19921;-68
2023/04/07 05:50:00;;;;;;;;;;;;;;;-140.72;100.00;52851.50;5036244;28;19928;-68
2023/04/07 05:52:25;;;;;;;;;;;;;;;-140.72;100.00;52890.06;5023387;28;20440;-68
2023/04/07 05:54:50;;;;;;;;;;;;;;;-140.72;100.00;52851.50;5027571;28;20317;-68
2023/04/07 05:57:15;;;;;;;;;;;;;;;-140.72;100.00;52877.88;5025219;28;20291;-69
2023/04/07 06:00:07;;;;;;;;;;;;;;;-140.72;100.00;52845.41;5014175;28;20269;-68
2023/04/07 06:02:32;;;;;;;;;;;;;;;-140.72;100.00;52841.34;5028037;28;19948;-68
2023/04/07 06:04:57;;;;;;;;;;;;;;;-140.72;100.00;52853.53;5028996;28;20386;-68
2023/04/07 06:07:23;;;;;;;;;;;;;;;-140.72;100.00;52821.06;5030017;28;19917;-68
2023/04/07 06:09:48;;;;;;;;;;;;;;;-140.72;100.00;52867.72;5027306;28;19921;-68
2023/04/07 06:12:15;;;;;;;;;;;;;;;-140.72;100.00;52821.06;5022165;28;19924;-69
2023/04/07 06:14:41;;;;;;;;;;;;;;;-140.72;100.00;52829.19;5026024;28;19961;-68
2023/04/07 06:17:06;;;;;;;;;;;;;;;-140.72;100.00;52869.75;5036087;28;20276;-68
2023/04/07 06:19:31;;;;;;;;;;;;;;;-140.72;100.00;52873.81;5023027;28;19921;-68
2023/04/07 06:22:02;;;;;;;;;;;;;;;-140.72;100.00;52865.69;5025603;28;19921;-68
2023/04/07 06:24:27;;;;;;;;;;;;;;;-140.72;100.00;52867.72;5025054;28;20020;-68
2023/04/07 06:26:53;;;;;;;;;;;;;;;-140.72;100.00;52863.66;5033262;28;20284;-68
2023/04/07 06:29:18;;;;;;;;;;;;;;;-140.72;100.00;52817.00;5023147;28;19925;-68
2023/04/07 06:31:43;;;;;;;;;;;;;;;-140.72;100.00;52851.50;5031045;28;19964;-70
2023/04/07 06:34:09;;;;;;;;;;;;;;;-140.72;100.00;52851.50;5038448;28;19933;-68
2023/04/07 06:36:34;;;;;;;;;;;;;;;-140.72;100.00;52841.34;5032471;28;19924;-70
2023/04/07 06:38:59;;;;;;;;;;;;;;;-140.72;100.00;52847.44;5034078;28;19921;-68
2023/04/07 06:41:24;;;;;;;;;;;;;;;-140.72;100.00;52837.28;5032557;28;19917;-68
2023/04/07 06:43:53;;;;;;;;;;;;;;;-140.72;100.00;52829.19;5040086;28;20348;-68
2023/04/07 06:46:18;;;;;;;;;;;;;;;-140.72;100.00;52814.97;5025702;28;19918;-68
2023/04/07 06:51:46;;;;;;;;;;;;;;;-140.72;100.00;52823.09;5037099;28;19924;-69
2023/04/07 06:54:12;;;;;;;;;;;;;;;-140.72;100.00;52837.28;5026963;28;19918;-70
2023/04/07 06:56:38;;;;;;;;;;;;;;;-140.72;100.00;52825.13;5049758;28;20401;-70
2023/04/07 06:59:04;;;;;;;;;;;;;;;-140.72;100.00;52821.06;5027102;28;19921;-70
2023/04/07 07:01:29;;;;;;;;;;;;;;;-140.72;100.00;52817.00;5027370;28;20397;-71
2023/04/07 07:03:54;;;;;;;;;;;;;;;-140.72;100.00;52796.72;5025912;28;19928;-69
2023/04/07 07:06:20;;;;;;;;;;;;;;;-140.72;100.00;52808.88;5027082;28;20421;-67
2023/04/07 07:08:45;;;;;;;;;;;;;;;-140.72;100.00;52823.09;5026369;28;19921;-67
2023/04/07 07:11:10;;;;;;;;;;;;;;;-140.72;100.00;52800.75;5033893;28;19917;-69
2023/04/07 07:13:36;;;;;;;;;;;;;;;-140.72;100.00;52812.94;5028400;27;19928;-69
2023/04/07 07:16:01;;;;;;;;;;;;;;;-140.72;100.00;52796.72;5029492;28;19932;-69
2023/04/07 07:18:26;;;;;;;;;;;;;;;-140.72;100.00;52808.88;5029857;28;19964;-69
2023/04/07 07:20:51;;;;;;;;;;;;;;;-140.72;100.00;52817.00;5025936;28;20016;-69
2023/04/07 07:23:16;;;;;;;;;;;;;;;-140.72;100.00;52849.47;5029836;28;20264;-69
2023/04/07 07:25:42;;;;;;;;;;;;;;;-140.72;100.00;52823.09;5032282;28;19918;-69
2023/04/07 07:28:08;;;;;;;;;;;;;;;-140.72;100.00;52845.41;5036935;28;19921;-69
2023/04/07 07:30:33;;;;;;;;;;;;;;;-140.72;100.00;52812.94;5037684;28;19917;-68
2023/04/07 07:32:59;;;;;;;;;;;;;;;-140.72;100.00;52851.50;5032018;28;19928;-69
2023/04/07 07:35:24;;;;;;;;;;;;;;;-140.72;100.00;52829.19;5034160;28;20317;-68
2023/04/07 07:37:50;;;;;;;;;;;;;;;-140.72;100.00;52831.19;5029814;28;20406;-69
2023/04/07 07:40:15;;;;;;;;;;;;;;;-140.72;100.00;52796.72;5023276;28;19921;-68
2023/04/07 07:42:41;;;;;;;;;;;;;;;-140.72;100.00;52804.81;5029519;28;19932;-68
2023/04/07 07:45:06;;;;;;;;;;;;;;;-140.72;100.00;52800.75;5026883;28;19929;-70
2023/04/07 07:47:32;;;;;;;;;;;;;;;-140.72;100.00;52804.81;5031768;27;19925;-68
2023/04/07 07:49:57;;;;;;;;;;;;;;;-140.72;100.00;52800.75;5027182;28;19927;-69
2023/04/07 07:52:22;;;;;;;;;;;;;;;-140.72;100.00;52833.22;5026259;28;20294;-70
2023/04/07 07:55:01;;;;;;;;;;;;;;;-140.72;100.00;52788.59;5025655;28;19928;-71
2023/04/07 07:57:26;;;;;;;;;;;;;;;-140.72;100.00;52802.78;5044864;28;19970;-73
2023/04/07 07:59:52;;;;;;;;;;;;;;;-140.72;100.00;52810.91;5026414;27;19933;-73
2023/04/07 08:02:17;;;;;;;;;;;;;;;-140.72;100.00;52819.03;5025501;28;19928;-73
2023/04/07 08:04:43;;;;;;;;;;;;;;;-140.72;100.00;52794.69;5026792;28;19921;-70
2023/04/07 08:07:08;;;;;;;;;;;;;;;-140.72;100.00;52812.94;5023303;28;19927;-70
2023/04/07 08:09:33;;;;;;;;;;;;;;;-140.72;100.00;52804.81;5018442;28;19921;-70
2023/04/07 08:11:59;;;;;;;;;;;;;;;-140.72;100.00;52792.66;5027368;28;20840;-70
2023/04/07 08:14:24;;;;;;;;;;;;;;;-140.72;100.00;52814.97;5029858;28;20401;-69
2023/04/07 08:16:50;;;;;;;;;;;;;;;-140.72;100.00;52804.81;5029359;28;19956;-70
2023/04/07 08:19:15;;;;;;;;;;;;;;;-140.72;100.00;52776.41;5035044;28;20370;-70
2023/04/07 08:21:40;;;;;;;;;;;;;;;-140.72;100.00;52806.84;5028562;28;19917;-70
2023/04/07 08:24:06;;;;;;;;;;;;;;;-140.72;100.00;52780.47;5028303;28;19918;-70
2023/04/07 08:26:31;;;;;;;;;;;;;;;-140.72;100.00;52780.47;5030664;28;20293;-70
2023/04/07 08:28:57;;;;;;;;;;;;;;;-140.72;100.00;52806.84;5045959;28;20440;-69
2023/04/07 08:31:23;;;;;;;;;;;;;;;-140.72;100.00;52786.56;5032120;28;19917;-69
2023/04/07 08:33:52;;;;;;;;;;;;;;;-140.72;100.00;52812.94;5029401;28;20640;-67
2023/04/07 08:36:18;;;;;;;;;;;;;;;-140.72;100.00;52764.25;5033032;28;19962;-69
2023/04/07 08:38:43;;;;;;;;;;;;;;;-140.72;100.00;52770.31;5033103;28;20330;-68
2023/04/07 08:41:12;;;;;;;;;;;;;;;-140.72;100.00;52788.59;5029806;28;20016;-70
2023/04/07 08:43:38;;;;;;;;;;;;;;;-140.72;100.00;52780.47;5029821;28;19917;-69
2023/04/07 08:46:03;;;;;;;;;;;;;;;-140.72;100.00;52804.81;5031042;28;19928;-69
2023/04/07 08:48:32;;;;;;;;;;;;;;;-140.72;100.00;52784.53;5022003;28;19921;-70
2023/04/07 08:50:59;;;;;;;;;;;;;;;-140.72;100.00;52802.78;5027192;28;19944;-69
2023/04/07 08:53:28;;;;;;;;;;;;;;;-140.72;100.00;52808.88;5026238;28;20393;-69
2023/04/07 08:55:54;;;;;;;;;;;;;;;-140.72;100.00;52786.56;5021691;28;20009;-69
2023/04/07 08:58:22;;;;;;;;;;;;;;;-140.72;100.00;52772.34;5026429;27;19921;-71
2023/04/07 09:00:48;;;;;;;;;;;;;;;-140.72;100.00;52782.50;5032532;27;19921;-70
2023/04/07 09:03:14;;;;;;;;;;;;;;;-140.72;100.00;52792.66;5031535;28;19928;-71
2023/04/07 09:05:39;;;;;;;;;;;;;;;-140.72;100.00;52762.22;5044671;28;20432;-70
2023/04/07 09:08:05;;;;;;;;;;;;;;;-140.72;100.00;52790.63;5022556;28;19917;-69
2023/04/07 09:10:31;;;;;;;;;;;;;;;-140.72;100.00;52796.72;5021461;28;19921;-70
2023/04/07 09:12:57;;;;;;;;;;;;;;;-140.72;100.00;52806.84;5027903;28;19927;-70
2023/04/07 09:15:22;;;;;;;;;;;;;;;-140.72;100.00;52770.31;5028610;28;20334;-71
2023/04/07 09:17:50;;;;;;;;;;;;;;;-140.72;100.00;52796.72;5030280;28;19950;-73
2023/04/07 09:20:15;;;;;;;;;;;;;;;-140.72;100.00;52760.19;5033078;28;19974;-68
2023/04/07 09:23:05;;;;;;;;;;;;;;;-140.72;100.00;52754.09;5013849;28;20295;-69
2023/04/07 09:25:32;;;;;;;;;;;;;;;-140.72;100.00;52752.06;5023568;28;19921;-70
2023/04/07 09:27:58;;;;;;;;;;;;;;;-140.72;100.00;52772.34;5028085;28;19928;-69
2023/04/07 09:30:23;;;;;;;;;;;;;;;-140.72;100.00;52764.25;5038797;28;20373;-69
2023/04/07 09:32:48;;;;;;;;;;;;;;;-140.72;100.00;52766.25;5029917;28;20008;-68
2023/04/07 09:35:18;;;;;;;;;;;;;;;-140.72;100.00;52729.75;5025783;28;21769;-69
2023/04/07 09:37:43;;;;;;;;;;;;;;;-140.72;100.00;52760.19;5039994;28;19964;-69
2023/04/07 09:40:09;;;;;;;;;;;;;;;-140.72;100.00;52804.81;5047995;28;19960;-69
2023/04/07 09:42:36;;;;;;;;;;;;;;;-140.72;100.00;52790.63;5033110;28;19948;-69
2023/04/07 09:45:02;;;;;;;;;;;;;;;-140.72;100.00;52739.88;5027733;28;19978;-69
2023/04/07 09:47:28;;;;;;;;;;;;;;;-140.72;100.00;52766.25;5027679;28;19921;-69
2023/04/07 09:49:54;;;;;;;;;;;;;;;-140.72;100.00;52739.88;5021622;28;19928;-69
2023/04/07 09:52:22;;;;;;;;;;;;;;;-140.72;100.00;52804.81;5022864;28;19928;-69
2023/04/07 09:54:48;;;;;;;;;;;;;;;-140.72;100.00;52778.44;5021816;28;19917;-70
2023/04/07 09:57:26;;;;;;;;;;;;;;;-140.72;100.00;52743.94;5036117;28;19928;-72
2023/04/07 09:59:53;;;;;;;;;;;;;;;-140.72;100.00;52810.91;5028260;28;20395;-71
2023/04/07 10:02:18;;;;;;;;;;;;;;;-140.72;100.00;52739.88;5027504;28;20298;-71
2023/04/07 10:04:43;;;;;;;;;;;;;;;-140.72;100.00;52780.47;5031771;28;19921;-69
2023/04/07 10:07:09;;;;;;;;;;;;;;;-140.72;100.00;52770.31;5028341;28;19960;-70
2023/04/07 10:09:34;;;;;;;;;;;;;;;-140.72;100.00;52766.25;5024902;28;20297;-70
2023/04/07 10:12:00;;;;;;;;;;;;;;;-140.72;100.00;52752.06;5023623;28;19944;-73
2023/04/07 10:14:26;;;;;;;;;;;;;;;-140.72;100.00;52719.59;5026093;28;19968;-71
2023/04/07 10:16:52;;;;;;;;;;;;;;;-140.72;100.00;52766.25;5025223;28;20020;-70
2023/04/07 10:19:18;;;;;;;;;;;;;;;-140.72;100.00;52819.03;5022091;28;20021;-74
2023/04/07 10:21:43;;;;;;;;;;;;;;;-140.72;100.00;52739.88;5025737;28;19944;-69
2023/04/07 10:24:27;;;;;;;;;;;;;;;-140.72;100.00;52776.41;5035284;28;19936;-69
2023/04/07 10:26:55;;;;;;;;;;;;;;;-140.72;100.00;52762.22;5027291;28;19978;-71
2023/04/07 10:29:22;;;;;;;;;;;;;;;-140.72;100.00;52770.31;5023853;28;19921;-70
2023/04/07 10:31:48;;;;;;;;;;;;;;;-140.72;100.00;52739.88;5022455;28;19965;-70
2023/04/07 10:34:13;;;;;;;;;;;;;;;-140.72;100.00;52752.06;5030776;28;19967;-71
2023/04/07 10:37:12;;;;;;;;;;;;;;;-140.72;100.00;52752.06;5022331;28;19928;-72
2023/04/07 10:39:37;;;;;;;;;;;;;;;-140.72;100.00;52756.13;5003945;28;19964;-72
2023/04/07 10:42:02;;;;;;;;;;;;;;;-140.72;100.00;52810.91;5029917;28;19921;-71
2023/04/07 10:44:37;;;;;;;;;;;;;;;-140.72;100.00;52748.00;5033608;27;19929;-72
2023/04/07 10:47:03;;;;;;;;;;;;;;;-140.72;100.00;52764.25;5032527;28;19989;-72
2023/04/07 10:49:29;;;;;;;;;;;;;;;-140.72;100.00;52776.41;5021131;28;19957;-72
2023/04/07 10:52:13;;;;;;;;;;;;;;;-140.72;100.00;52790.63;5034411;28;19953;-73
2023/04/07 10:55:09;;;;;;;;;;;;;;;-140.72;100.00;52725.69;5049935;28;19921;-73
2023/04/07 10:57:34;;;;;;;;;;;;;;;-140.72;100.00;52725.69;5026909;28;19960;-74
2023/04/07 11:00:09;;;;;;;;;;;;;;;-140.72;100.00;52743.94;5032234;28;19960;-72
2023/04/07 11:02:34;;;;;;;;;;;;;;;-140.72;100.00;52776.41;5025755;28;19940;-71
2023/04/07 11:05:00;;;;;;;;;;;;;;;-140.72;100.00;52750.03;5029616;28;19925;-70
2023/04/07 11:07:44;;;;;;;;;;;;;;;-140.72;100.00;52741.91;5033164;28;19927;-70
2023/04/07 11:10:14;;;;;;;;;;;;;;;-140.72;100.00;52739.88;5027277;28;19986;-70
2023/04/07 11:12:40;;;;;;;;;;;;;;;-140.72;100.00;52745.97;5029579;28;19921;-70
2023/04/07 11:15:18;;;;;;;;;;;;;;;-140.72;100.00;52784.53;5029306;28;19921;-71
2023/04/07 11:17:43;;;;;;;;;;;;;;;-140.72;100.00;52750.03;5037963;28;19924;-71
2023/04/07 11:20:09;;;;;;;;;;;;;;;-140.72;100.00;52752.06;5030713;28;20328;-71
2023/04/07 11:22:36;;;;;;;;;;;;;;;-140.72;100.00;52735.81;5036931;27;20287;-74
2023/04/07 11:25:01;;;;;;;;;;;;;;;-140.72;100.00;52764.25;5033448;28;20272;-73
2023/04/07 11:27:27;;;;;;;;;;;;;;;-140.72;100.00;52784.53;5023755;28;20007;-73
2023/04/07 11:29:53;;;;;;;;;;;;;;;-140.72;100.00;52743.94;5043413;28;20007;-73
2023/04/07 11:32:21;;;;;;;;;;;;;;;-140.72;100.00;52709.44;5030037;28;19921;-73
2023/04/07 11:34:47;;;;;;;;;;;;;;;-140.72;100.00;52741.91;5028768;28;19922;-73
2023/04/07 11:37:20;;;;;;;;;;;;;;;-140.72;100.00;52737.84;5032101;28;19929;-73
2023/04/07 11:39:50;;;;;;;;;;;;;;;-140.72;100.00;52760.19;5043930;28;19921;-73
2023/04/07 11:42:15;;;;;;;;;;;;;;;-140.72;100.00;52760.19;5032331;28;19972;-73
2023/04/07 11:44:44;;;;;;;;;;;;;;;-140.72;100.00;52748.00;5024686;28;20395;-72
2023/04/07 11:47:10;;;;;;;;;;;;;;;-140.72;100.00;52756.13;5032389;28;19921;-73
2023/04/07 11:49:42;;;;;;;;;;;;;;;-140.72;100.00;52774.38;5028714;28;20256;-72
2023/04/07 11:52:10;;;;;;;;;;;;;;;-140.72;100.00;52812.94;5028131;28;20017;-72
2023/04/07 11:54:40;;;;;;;;;;;;;;;-140.72;100.00;52784.53;5033688;28;19932;-72
2023/04/07 11:57:13;;;;;;;;;;;;;;;-140.72;100.00;52731.75;5030497;27;20439;-72
2023/04/07 11:59:39;;;;;;;;;;;;;;;-140.72;100.00;52756.13;5028703;28;20392;-72
2023/04/07 12:02:10;;;;;;;;;;;;;;;-140.72;100.00;52788.59;5027021;28;20037;-73
2023/04/07 12:04:38;;;;;;;;;;;;;;;-140.72;100.00;52760.19;5029121;28;19929;-73
2023/04/07 12:07:07;;;;;;;;;;;;;;;-140.72;100.00;52743.94;5031583;28;19925;-72
2023/04/07 12:09:37;;;;;;;;;;;;;;;-140.72;100.00;52800.75;5029350;28;19960;-72
2023/04/07 12:14:49;;;;;;;;;;;;;;;-140.72;100.00;52790.63;5035733;28;20405;-72
2023/04/07 12:17:25;;;;;;;;;;;;;;;-140.72;100.00;52774.38;5025567;28;20396;-73
2023/04/07 12:19:51;;;;;;;;;;;;;;;-140.72;100.00;52768.28;5028197;28;19921;-73
2023/04/07 12:22:16;;;;;;;;;;;;;;;-140.72;100.00;52790.63;5030251;28;20289;-74
2023/04/07 12:24:41;;;;;;;;;;;;;;;-140.72;100.00;52756.13;5036131;28;20032;-73
2023/04/07 12:27:07;;;;;;;;;;;;;;;-140.72;100.00;52735.81;5029066;28;19944;-72
2023/04/07 12:29:32;;;;;;;;;;;;;;;-140.72;100.00;52733.78;5023276;28;20012;-72
2023/04/07 12:31:58;;;;;;;;;;;;;;;-140.72;100.00;52727.72;5021203;28;20300;-72